createdAt,value
2023-02-23T00:05:06.042Z,7.2
2023-02-23T00:10:36.064Z,7.2
2023-02-23T00:15:53.640Z,7.1
2023-02-23T00:21:24.334Z,7.1
2023-02-23T00:27:11.029Z,7.1
2023-02-23T00:32:47.910Z,7.2
2023-02-23T00:38:08.828Z,7.3
2023-02-23T00:43:59.758Z,7.1
2023-02-23T00:49:11.028Z,7.1
2023-02-23T00:54:50.411Z,6.9
2023-02-23T01:00:31.947Z,6.7
2023-02-23T01:05:58.635Z,6.6
2023-02-23T01:11:38.462Z,6.6
2023-02-23T01:17:01.848Z,6.4
2023-02-23T01:22:50.396Z,6.5
2023-02-23T01:28:16.483Z,6.5
2023-02-23T01:33:47.707Z,6.6
2023-02-23T01:39:16.929Z,6.7
2023-02-23T01:44:54.892Z,6.5
2023-02-23T01:50:35.144Z,6.5
2023-02-23T01:56:17.590Z,6.6
2023-02-23T02:01:36.126Z,6.6
2023-02-23T02:06:59.291Z,6.6
2023-02-23T02:12:29.530Z,6.6
2023-02-23T02:18:29.374Z,6.8
2023-02-23T02:24:01.067Z,6.9
2023-02-23T02:29:29.202Z,6.8
2023-02-23T02:34:47.612Z,6.8
2023-02-23T02:40:45.111Z,6.8
2023-02-23T02:46:04.454Z,6.9
2023-02-23T02:51:41.703Z,6.9
2023-02-23T02:57:15.497Z,6.9
2023-02-23T03:02:47.719Z,6.9
2023-02-23T03:08:05.598Z,6.8
2023-02-23T03:14:02.098Z,6.9
2023-02-23T03:19:22.161Z,7.1
2023-02-23T03:24:56.300Z,7
2023-02-23T03:30:33.945Z,7
2023-02-23T03:36:07.156Z,7
2023-02-23T03:41:40.033Z,6.9
2023-02-23T03:47:01.639Z,6.7
2023-02-23T03:52:52.862Z,6.6
2023-02-23T03:58:24.957Z,6.5
2023-02-23T04:03:47.951Z,6.6
2023-02-23T04:09:37.067Z,6.5
2023-02-23T04:15:10.844Z,6.6
2023-02-23T04:20:42.003Z,6.6
2023-02-23T04:26:12.781Z,6.7
2023-02-23T04:31:48.383Z,6.8
2023-02-23T04:37:22.288Z,6.8
2023-02-23T04:42:40.379Z,6.7
2023-02-23T04:48:26.527Z,6.7
2023-02-23T04:53:49.069Z,6.5
2023-02-23T04:59:32.298Z,6.6
2023-02-23T05:05:09.113Z,6.7
2023-02-23T05:10:40.128Z,6.8
2023-02-23T05:16:05.108Z,6.7
2023-02-23T05:21:30.601Z,6.9
2023-02-23T05:27:08.090Z,6.9
2023-02-23T05:32:35.152Z,6.9
2023-02-23T05:38:29.254Z,6.9
2023-02-23T05:49:33.063Z,7
2023-02-23T05:54:51.423Z,7
2023-02-23T06:00:28.875Z,7
2023-02-23T06:06:19.286Z,7
2023-02-23T06:11:31.476Z,7
2023-02-23T06:17:02.638Z,7
2023-02-23T06:22:37.905Z,7
2023-02-23T06:28:32.378Z,6.9
2023-02-23T06:33:44.640Z,7
2023-02-23T06:39:26.597Z,7
2023-02-23T06:44:57.773Z,7.1
2023-02-23T06:50:22.311Z,7.1
2023-02-23T06:55:57.444Z,7.2
2023-02-23T07:01:34.790Z,7.3
2023-02-23T07:07:18.260Z,7.3
2023-02-23T07:12:55.976Z,7.3
2023-02-23T07:18:19.888Z,7.3
2023-02-23T07:23:58.073Z,7.2
2023-02-23T07:29:20.126Z,7.2
2023-02-23T07:35:05.055Z,7.1
2023-02-23T07:40:52.025Z,7.1
2023-02-23T07:46:06.222Z,7.1
2023-02-23T07:51:43.037Z,7.1
2023-02-23T07:57:23.397Z,7.1
2023-02-23T08:03:04.772Z,7.2
2023-02-23T08:08:13.871Z,7.2
2023-02-23T08:14:12.989Z,7.3
2023-02-23T08:19:20.388Z,7.4
2023-02-23T08:25:03.558Z,7.6
2023-02-23T08:30:41.625Z,7.8
2023-02-23T08:35:59.974Z,7.8
2023-02-23T08:41:59.257Z,7.9
2023-02-23T08:47:33.473Z,8
2023-02-23T08:52:48.310Z,8.1
2023-02-23T08:58:33.310Z,8
2023-02-23T09:04:09.864Z,8
2023-02-23T09:09:39.629Z,8
2023-02-23T09:15:05.544Z,8.3
2023-02-23T09:20:36.988Z,8.6
2023-02-23T09:26:09.132Z,9
2023-02-23T09:31:38.946Z,9.4
2023-02-23T09:37:14.047Z,9.4
2023-02-23T09:43:07.566Z,9.4
2023-02-23T09:48:24.807Z,9.5
2023-02-23T09:54:00.452Z,9.5
2023-02-23T09:59:50.259Z,9.7
2023-02-23T10:05:06.609Z,9.6
2023-02-23T10:10:58.664Z,9.8
2023-02-23T10:16:13.319Z,10.2
2023-02-23T10:21:47.340Z,10.4
2023-02-23T10:27:40.898Z,10.3
2023-02-23T10:33:22.300Z,10.5
2023-02-23T10:38:45.332Z,10.3
2023-02-23T10:44:24.353Z,10.6
2023-02-23T10:49:53.208Z,10.5
2023-02-23T10:55:29.280Z,10.9
2023-02-23T11:01:04.151Z,10.7
2023-02-23T11:06:27.988Z,10.5
2023-02-23T12:19:02.927Z,13.3
2023-02-23T12:24:46.307Z,12.9
2023-02-23T12:41:22.668Z,13.1
2023-02-23T15:02:10.544Z,13.6
2023-02-23T15:24:28.743Z,13.5
2023-02-23T15:41:31.509Z,13.6
2023-02-23T17:10:59.372Z,9.6
2023-02-23T17:16:17.876Z,9.5
2023-02-23T17:22:13.144Z,9.8
2023-02-23T17:27:38.806Z,10
2023-02-23T17:33:00.355Z,10
2023-02-23T17:38:37.158Z,10
2023-02-23T17:44:24.278Z,10.2
2023-02-23T17:55:16.766Z,8.4
2023-02-23T18:23:08.773Z,8.2
2023-02-23T18:29:08.581Z,7.8
2023-02-23T18:34:33.180Z,8
2023-02-23T18:40:15.468Z,8.7
2023-02-23T18:45:46.064Z,8.6
2023-02-23T18:51:16.577Z,9
2023-02-23T18:56:38.720Z,8.9
2023-02-23T19:02:15.243Z,9.1
2023-02-23T19:08:04.419Z,8.9
2023-02-23T19:13:28.237Z,8.4
2023-02-23T19:19:08.008Z,9
2023-02-23T19:24:38.509Z,9.4
2023-02-23T19:30:05.774Z,9.4
2023-02-23T19:35:59.882Z,9.3
2023-02-23T19:47:01.511Z,8.8
2023-02-23T19:52:37.159Z,8.7
2023-02-23T19:58:14.284Z,9.4
2023-02-23T20:03:33.415Z,8.9
2023-02-23T20:09:26.159Z,8.6
2023-02-23T20:14:52.295Z,8
2023-02-23T20:20:11.516Z,7.9
2023-02-23T20:25:50.216Z,7.8
2023-02-23T20:31:37.580Z,7.8
2023-02-23T20:37:08.969Z,7.7
2023-02-23T20:42:41.707Z,7.5
2023-02-23T20:48:05.847Z,7.3
2023-02-23T20:53:36.163Z,7.4
2023-02-23T20:59:05.444Z,7.6
2023-02-23T21:05:00.002Z,7.6
2023-02-23T21:10:18.451Z,7.5
2023-02-23T21:15:52.597Z,7.4
2023-02-23T21:21:17.050Z,7.9
2023-02-23T21:27:17.292Z,8.1
2023-02-23T21:32:30.106Z,8
2023-02-23T21:38:19.172Z,8.2
2023-02-23T21:43:43.641Z,8.2
2023-02-23T21:49:31.906Z,8.1
2023-02-23T21:54:37.547Z,7.3
2023-02-23T22:00:34.721Z,6.5
2023-02-23T22:06:08.962Z,6.5
2023-02-23T22:11:40.606Z,7
2023-02-23T22:17:01.267Z,6.9
2023-02-23T22:22:37.149Z,6.6
2023-02-23T22:27:58.665Z,6.4
2023-02-23T22:33:42.088Z,7
2023-02-23T22:39:07.237Z,7.1
2023-02-23T22:44:46.556Z,6.6
2023-02-23T22:50:28.849Z,6.4
2023-02-23T22:56:11.933Z,6.5
2023-02-23T23:01:29.221Z,6.4
2023-02-23T23:07:20.226Z,6.1
2023-02-23T23:12:34.798Z,6.2
2023-02-23T23:18:10.921Z,6.6
2023-02-23T23:23:41.834Z,6.6
2023-02-23T23:29:12.782Z,6.4
2023-02-23T23:34:48.466Z,6.3
2023-02-23T23:40:14.715Z,6.8
2023-02-23T23:45:47.681Z,6.9
2023-02-23T23:51:47.555Z,6.6
2023-02-23T23:56:55.015Z,6.2
